Friday, December 14, 2018, 6:57 PM EST
Back to Local

KBOS, Boston Logan International

Location: Boston, MA, United States Lat: 42.367
Local Time: 6:57 PM EST (23:57 GMT) Lon: -71.017
Time Zone: US/Eastern Elev: 19 ft

Show me the last for .
Show Decoded

2018-12-14 17:54 METAR KBOS 142254Z 19006KT 10SM SCT025 BKN060 OVC160 07/02 A3038 RMK AO2 SLP287
                 T00670022 =
2018-12-14 16:54 METAR KBOS 142154Z 18005KT 10SM BKN060 BKN160 OVC250 07/00 A3038 RMK AO2 SLP288
                 T00670000 =
2018-12-14 15:54 METAR KBOS 142054Z 15003KT 10SM BKN060 BKN160 OVC250 06/02 A3039 RMK AO2 SLP291
                 T00560017 56013 =
2018-12-14 14:54 METAR KBOS 141954Z 10005KT 10SM FEW065 SCT160 BKN250 06/00 A3040 RMK AO2 SLP292
                 T00560000 =
2018-12-14 13:54 METAR KBOS 141854Z 10007KT 10SM SCT065 BKN160 BKN250 06/00 A3041 RMK AO2 SLP296
                 T00610000 =
2018-12-14 12:54 METAR KBOS 141754Z 10007KT 10SM FEW160 BKN250 07/M02 A3043 RMK AO2 SLP304
                 T00671022 10072 21011 58038 =
2018-12-14 11:54 METAR KBOS 141654Z 11004KT 10SM BKN250 06/M02 A3046 RMK AO2 SLP315 T00561017 =
2018-12-14 10:54 METAR KBOS 141554Z 15003KT 10SM BKN250 05/M01 A3051 RMK AO2 SLP332 T00501011 =
2018-12-14 09:54 METAR KBOS 141454Z 19003KT 10SM FEW060 FEW250 04/M02 A3054 RMK AO2 SLP342
                 T00391017 50004 =
2018-12-14 08:54 METAR KBOS 141354Z 00000KT 10SM FEW250 02/M02 A3055 RMK AO2 SLP344 T00221022 =
2018-12-14 07:54 METAR KBOS 141254Z 18003KT 10SM FEW250 00/M03 A3053 RMK AO2 SLP339 T00001033 =
2018-12-14 06:54 METAR KBOS 141154Z 20005KT 10SM FEW060 FEW250 M01/M04 A3053 RMK AO2 SLP338
                 T10061039 10011 21017 55002 =
2018-12-14 05:54 METAR KBOS 141054Z 19005KT 10SM FEW055 M01/M04 A3053 RMK AO2 SLP338 T10111039 =
2018-12-14 04:54 METAR KBOS 140954Z 17006KT 10SM FEW055 M01/M03 A3053 RMK AO2 SLP336 T10061033 =
2018-12-14 03:54 METAR KBOS 140854Z 17004KT 10SM SCT055 M01/M04 A3054 RMK AO2 SLP340 T10111044
                 58012 =
2018-12-14 02:54 METAR KBOS 140754Z 00000KT 10SM SCT055 00/M04 A3056 RMK AO2 SLP348 T00001044 =
2018-12-14 01:54 METAR KBOS 140654Z 20003KT 10SM OVC055 01/M04 A3058 RMK AO2 SLP355 T00111039 =
2018-12-14 00:54 METAR KBOS 140554Z 20004KT 10SM SCT060 01/M04 A3057 RMK AO2 SLP352 T00111044
                 10017 20006 53002 =
2018-12-13 23:54 METAR KBOS 140454Z 00000KT 10SM BKN060 01/M05 A3056 RMK AO2 SLP348 T00111050
                 400171061 =
2018-12-13 22:54 METAR KBOS 140354Z 18003KT 10SM BKN065 01/M05 A3056 RMK AO2 SLP348 T00111050 =
2018-12-13 21:54 METAR KBOS 140254Z 17004KT 10SM OVC065 01/M05 A3057 RMK AO2 SLP350 T00111050
                 50001 =
2018-12-13 20:54 METAR KBOS 140154Z 15005KT 10SM SCT045 BKN070 OVC200 01/M05 A3057 RMK AO2 SLP352
                 T00111050 =
2018-12-13 19:54 METAR KBOS 140054Z 14005KT 10SM BKN065 OVC200 01/M05 A3057 RMK AO2 SLP350
                 T00111050 =

Support USWX by starting your Amazon purchase here.